sensor_id;sensor_type;location;lat;lon;timestamp;pressure;altitude;pressure_sealevel;temperature;humidity
50093;BME280;35974;47.752;10.290;2022-11-20T00:01:26;93312.13;;;1.86;100.00
50093;BME280;35974;47.752;10.290;2022-11-20T00:03:54;93277.94;;;1.75;100.00
50093;BME280;35974;47.752;10.290;2022-11-20T00:06:21;93315.03;;;1.74;100.00
50093;BME280;35974;47.752;10.290;2022-11-20T00:08:49;93286.69;;;1.50;100.00
50093;BME280;35974;47.752;10.290;2022-11-20T00:11:18;93293.16;;;1.37;100.00
50093;BME280;35974;47.752;10.290;2022-11-20T00:13:46;93293.13;;;1.54;100.00
50093;BME280;35974;47.752;10.290;2022-11-20T00:16:15;93292.50;;;1.43;100.00
50093;BME280;35974;47.752;10.290;2022-11-20T00:18:42;93307.66;;;1.46;100.00
50093;BME280;35974;47.752;10.290;2022-11-20T00:21:14;93332.09;;;1.67;100.00
50093;BME280;35974;47.752;10.290;2022-11-20T00:23:41;93323.75;;;1.65;100.00
50093;BME280;35974;47.752;10.290;2022-11-20T00:26:13;93311.97;;;1.62;100.00
50093;BME280;35974;47.752;10.290;2022-11-20T00:28:55;93318.28;;;1.60;100.00
50093;BME280;35974;47.752;10.290;2022-11-20T00:31:22;93314.03;;;1.83;100.00
50093;BME280;35974;47.752;10.290;2022-11-20T00:33:49;93337.25;;;1.92;100.00
50093;BME280;35974;47.752;10.290;2022-11-20T00:36:21;93341.16;;;1.71;100.00
50093;BME280;35974;47.752;10.290;2022-11-20T00:38:51;93333.75;;;1.60;100.00
50093;BME280;35974;47.752;10.290;2022-11-20T00:41:18;93334.00;;;1.90;100.00
50093;BME280;35974;47.752;10.290;2022-11-20T00:43:45;93328.72;;;1.67;100.00
50093;BME280;35974;47.752;10.290;2022-11-20T00:46:19;93348.22;;;1.86;100.00
50093;BME280;35974;47.752;10.290;2022-11-20T00:48:46;93336.13;;;1.86;100.00
50093;BME280;35974;47.752;10.290;2022-11-20T00:51:19;93330.19;;;1.77;100.00
50093;BME280;35974;47.752;10.290;2022-11-20T00:53:46;93332.72;;;2.02;100.00
50093;BME280;35974;47.752;10.290;2022-11-20T00:56:14;93327.91;;;1.82;100.00
50093;BME280;35974;47.752;10.290;2022-11-20T00:58:43;93352.06;;;1.90;100.00
50093;BME280;35974;47.752;10.290;2022-11-20T01:01:12;93350.75;;;2.10;100.00
50093;BME280;35974;47.752;10.290;2022-11-20T01:03:41;93352.03;;;2.06;100.00
50093;BME280;35974;47.752;10.290;2022-11-20T01:06:15;93354.06;;;2.35;100.00
50093;BME280;35974;47.752;10.290;2022-11-20T01:08:42;93331.38;;;2.14;100.00
50093;BME280;35974;47.752;10.290;2022-11-20T01:11:11;93359.41;;;2.26;100.00
50093;BME280;35974;47.752;10.290;2022-11-20T01:13:38;93361.69;;;2.20;100.00
50093;BME280;35974;47.752;10.290;2022-11-20T01:16:10;93365.22;;;2.36;100.00
50093;BME280;35974;47.752;10.290;2022-11-20T01:18:39;93359.66;;;2.55;100.00
50093;BME280;35974;47.752;10.290;2022-11-20T01:21:12;93363.66;;;2.58;100.00
50093;BME280;35974;47.752;10.290;2022-11-20T01:23:41;93372.31;;;2.82;100.00
50093;BME280;35974;47.752;10.290;2022-11-20T01:26:11;93368.94;;;2.81;100.00
50093;BME280;35974;47.752;10.290;2022-11-20T01:28:39;93370.66;;;2.89;100.00
50093;BME280;35974;47.752;10.290;2022-11-20T01:31:34;93368.34;;;2.94;100.00
50093;BME280;35974;47.752;10.290;2022-11-20T01:34:06;93348.84;;;2.91;100.00
50093;BME280;35974;47.752;10.290;2022-11-20T01:36:35;93354.59;;;3.02;100.00
50093;BME280;35974;47.752;10.290;2022-11-20T01:39:13;93345.88;;;3.03;100.00
50093;BME280;35974;47.752;10.290;2022-11-20T01:41:40;93351.50;;;3.29;100.00
50093;BME280;35974;47.752;10.290;2022-11-20T01:47:51;93369.66;;;3.21;100.00
50093;BME280;35974;47.752;10.290;2022-11-20T01:50:22;93378.75;;;3.63;100.00
50093;BME280;35974;47.752;10.290;2022-11-20T01:52:55;93359.13;;;3.54;100.00
50093;BME280;35974;47.752;10.290;2022-11-20T01:55:43;93372.88;;;3.70;100.00
50093;BME280;35974;47.752;10.290;2022-11-20T01:58:11;93369.81;;;3.51;100.00
50093;BME280;35974;47.752;10.290;2022-11-20T02:00:38;93365.38;;;3.37;100.00
50093;BME280;35974;47.752;10.290;2022-11-20T02:03:15;93366.56;;;3.72;100.00
50093;BME280;35974;47.752;10.290;2022-11-20T02:05:50;93377.03;;;3.79;100.00
50093;BME280;35974;47.752;10.290;2022-11-20T02:08:19;93352.72;;;3.65;100.00
50093;BME280;35974;47.752;10.290;2022-11-20T02:10:45;93341.84;;;3.70;100.00
50093;BME280;35974;47.752;10.290;2022-11-20T02:13:12;93353.88;;;3.62;100.00
50093;BME280;35974;47.752;10.290;2022-11-20T02:15:57;93372.00;;;3.62;100.00
50093;BME280;35974;47.752;10.290;2022-11-20T02:18:24;93358.94;;;3.94;100.00
50093;BME280;35974;47.752;10.290;2022-11-20T02:20:55;93350.22;;;3.72;100.00
50093;BME280;35974;47.752;10.290;2022-11-20T02:23:28;93351.81;;;4.11;100.00
50093;BME280;35974;47.752;10.290;2022-11-20T02:25:58;93344.59;;;3.68;100.00
50093;BME280;35974;47.752;10.290;2022-11-20T02:28:27;93362.59;;;3.61;100.00
50093;BME280;35974;47.752;10.290;2022-11-20T02:30:54;93359.09;;;3.77;100.00
50093;BME280;35974;47.752;10.290;2022-11-20T02:33:21;93341.41;;;3.81;100.00
50093;BME280;35974;47.752;10.290;2022-11-20T02:35:47;93348.69;;;4.00;99.45
50093;BME280;35974;47.752;10.290;2022-11-20T02:38:14;93353.56;;;3.57;100.00
50093;BME280;35974;47.752;10.290;2022-11-20T02:40:44;93345.31;;;3.77;99.02
50093;BME280;35974;47.752;10.290;2022-11-20T02:43:10;93372.31;;;3.82;100.00
50093;BME280;35974;47.752;10.290;2022-11-20T02:45:37;93358.28;;;3.54;99.68
50093;BME280;35974;47.752;10.290;2022-11-20T02:48:05;93373.09;;;3.83;99.33
50093;BME280;35974;47.752;10.290;2022-11-20T02:50:49;93367.94;;;3.60;99.75
50093;BME280;35974;47.752;10.290;2022-11-20T02:53:16;93359.69;;;3.64;100.00
50093;BME280;35974;47.752;10.290;2022-11-20T02:55:42;93315.31;;;3.53;98.91
50093;BME280;35974;47.752;10.290;2022-11-20T02:58:09;93344.94;;;3.65;98.93
50093;BME280;35974;47.752;10.290;2022-11-20T03:00:42;93372.41;;;3.89;98.94
50093;BME280;35974;47.752;10.290;2022-11-20T03:03:09;93347.31;;;3.52;100.00
50093;BME280;35974;47.752;10.290;2022-11-20T03:05:35;93346.31;;;3.76;99.54
50093;BME280;35974;47.752;10.290;2022-11-20T03:08:02;93350.41;;;3.47;99.27
50093;BME280;35974;47.752;10.290;2022-11-20T03:10:28;93365.41;;;3.75;99.26
50093;BME280;35974;47.752;10.290;2022-11-20T03:12:55;93362.41;;;3.86;98.65
50093;BME280;35974;47.752;10.290;2022-11-20T03:15:24;93353.56;;;3.57;99.86
50093;BME280;35974;47.752;10.290;2022-11-20T03:17:54;93347.63;;;3.72;99.84
50093;BME280;35974;47.752;10.290;2022-11-20T03:20:22;93349.00;;;3.82;99.05
50093;BME280;35974;47.752;10.290;2022-11-20T03:22:48;93367.16;;;3.59;100.00
50093;BME280;35974;47.752;10.290;2022-11-20T03:25:15;93341.16;;;3.76;100.00
50093;BME280;35974;47.752;10.290;2022-11-20T03:27:41;93329.31;;;3.58;99.00
50093;BME280;35974;47.752;10.290;2022-11-20T03:30:15;93350.00;;;3.58;100.00
50093;BME280;35974;47.752;10.290;2022-11-20T03:32:41;93351.16;;;3.79;99.19
50093;BME280;35974;47.752;10.290;2022-11-20T03:35:08;93345.97;;;3.79;99.99
50093;BME280;35974;47.752;10.290;2022-11-20T03:37:42;93356.47;;;3.62;99.68
50093;BME280;35974;47.752;10.290;2022-11-20T03:40:09;93350.13;;;3.65;100.00
50093;BME280;35974;47.752;10.290;2022-11-20T03:42:35;93379.22;;;3.90;99.23
50093;BME280;35974;47.752;10.290;2022-11-20T03:45:15;93355.13;;;4.05;98.38
50093;BME280;35974;47.752;10.290;2022-11-20T03:47:43;93375.28;;;3.94;99.64
50093;BME280;35974;47.752;10.290;2022-11-20T03:50:12;93353.09;;;3.77;99.91
50093;BME280;35974;47.752;10.290;2022-11-20T03:52:41;93371.13;;;3.85;99.86
50093;BME280;35974;47.752;10.290;2022-11-20T03:55:08;93354.16;;;3.67;100.00
50093;BME280;35974;47.752;10.290;2022-11-20T03:57:34;93359.13;;;3.54;100.00
50093;BME280;35974;47.752;10.290;2022-11-20T04:00:09;93374.28;;;3.80;100.00
50093;BME280;35974;47.752;10.290;2022-11-20T04:02:36;93360.31;;;3.66;100.00
50093;BME280;35974;47.752;10.290;2022-11-20T04:05:03;93387.84;;;3.59;100.00
50093;BME280;35974;47.752;10.290;2022-11-20T04:07:29;93370.00;;;3.18;100.00
50093;BME280;35974;47.752;10.290;2022-11-20T04:10:04;93379.34;;;3.51;100.00
50093;BME280;35974;47.752;10.290;2022-11-20T04:12:32;93368.81;;;3.52;100.00
50093;BME280;35974;47.752;10.290;2022-11-20T04:14:59;93374.16;;;3.51;99.82
50093;BME280;35974;47.752;10.290;2022-11-20T04:17:26;93380.72;;;3.61;99.98
50093;BME280;35974;47.752;10.290;2022-11-20T04:19:52;93375.88;;;3.58;99.68
50093;BME280;35974;47.752;10.290;2022-11-20T04:22:19;93372.75;;;3.48;98.84
50093;BME280;35974;47.752;10.290;2022-11-20T04:24:45;93397.38;;;3.36;99.44
50093;BME280;35974;47.752;10.290;2022-11-20T04:27:11;93388.66;;;3.37;99.39
50093;BME280;35974;47.752;10.290;2022-11-20T04:29:38;93373.13;;;3.37;99.77
50093;BME280;35974;47.752;10.290;2022-11-20T04:32:04;93367.72;;;3.23;99.71
50093;BME280;35974;47.752;10.290;2022-11-20T04:34:31;93360.25;;;3.28;99.19
50093;BME280;35974;47.752;10.290;2022-11-20T04:36:57;93361.63;;;3.16;98.79
50093;BME280;35974;47.752;10.290;2022-11-20T04:39:24;93381.53;;;3.39;99.65
50093;BME280;35974;47.752;10.290;2022-11-20T04:41:50;93338.06;;;3.11;98.68
50093;BME280;35974;47.752;10.290;2022-11-20T04:45:01;93376.97;;;3.41;97.54
50093;BME280;35974;47.752;10.290;2022-11-20T04:47:28;93349.81;;;3.45;97.79
50093;BME280;35974;47.752;10.290;2022-11-20T04:49:54;93344.03;;;3.35;97.71
50093;BME280;35974;47.752;10.290;2022-11-20T04:52:21;93363.34;;;3.47;97.33
50093;BME280;35974;47.752;10.290;2022-11-20T04:54:47;93359.47;;;3.51;96.59
50093;BME280;35974;47.752;10.290;2022-11-20T04:57:14;93338.13;;;3.26;96.39
50093;BME280;35974;47.752;10.290;2022-11-20T04:59:40;93347.16;;;3.53;95.39
50093;BME280;35974;47.752;10.290;2022-11-20T05:02:07;93360.16;;;3.45;96.21
50093;BME280;35974;47.752;10.290;2022-11-20T05:04:34;93359.13;;;3.54;95.95
50093;BME280;35974;47.752;10.290;2022-11-20T05:07:00;93350.69;;;3.52;95.64
50093;BME280;35974;47.752;10.290;2022-11-20T05:09:27;93306.47;;;3.01;95.96
50093;BME280;35974;47.752;10.290;2022-11-20T05:11:53;93373.13;;;3.37;95.76
50093;BME280;35974;47.752;10.290;2022-11-20T05:14:20;93359.56;;;3.35;95.28
50093;BME280;35974;47.752;10.290;2022-11-20T05:16:46;93384.38;;;3.44;94.66
50093;BME280;35974;47.752;10.290;2022-11-20T05:19:12;93380.59;;;3.32;96.08
50093;BME280;35974;47.752;10.290;2022-11-20T05:21:39;93374.63;;;3.54;94.16
50093;BME280;35974;47.752;10.290;2022-11-20T05:24:05;93368.69;;;3.22;94.42
50093;BME280;35974;47.752;10.290;2022-11-20T05:26:33;93383.59;;;3.20;95.53
50093;BME280;35974;47.752;10.290;2022-11-20T05:28:59;93379.03;;;3.22;94.20
50093;BME280;35974;47.752;10.290;2022-11-20T05:31:26;93380.00;;;3.21;94.65
50093;BME280;35974;47.752;10.290;2022-11-20T05:33:56;93378.41;;;3.20;94.60
50093;BME280;35974;47.752;10.290;2022-11-20T05:36:23;93392.44;;;3.26;95.30
50093;BME280;35974;47.752;10.290;2022-11-20T05:38:50;93388.31;;;3.40;94.86
50093;BME280;35974;47.752;10.290;2022-11-20T05:41:20;93396.53;;;3.43;94.94
50093;BME280;35974;47.752;10.290;2022-11-20T05:43:47;93395.41;;;3.38;95.16
50093;BME280;35974;47.752;10.290;2022-11-20T05:46:18;93393.81;;;3.37;94.52
50093;BME280;35974;47.752;10.290;2022-11-20T05:48:53;93372.47;;;3.43;93.80
50093;BME280;35974;47.752;10.290;2022-11-20T05:51:19;93400.50;;;3.54;93.22
50093;BME280;35974;47.752;10.290;2022-11-20T05:53:46;93372.53;;;3.26;92.79
50093;BME280;35974;47.752;10.290;2022-11-20T05:56:19;93393.16;;;3.35;93.40
50093;BME280;35974;47.752;10.290;2022-11-20T05:58:46;93360.94;;;3.22;92.73
50093;BME280;35974;47.752;10.290;2022-11-20T06:01:24;93396.34;;;3.45;92.07
50093;BME280;35974;47.752;10.290;2022-11-20T06:03:53;93400.25;;;3.41;93.89
50093;BME280;35974;47.752;10.290;2022-11-20T06:06:19;93385.91;;;3.38;92.87
50093;BME280;35974;47.752;10.290;2022-11-20T06:08:46;93374.84;;;3.21;93.25
50093;BME280;35974;47.752;10.290;2022-11-20T06:11:14;93400.84;;;3.51;92.65
50093;BME280;35974;47.752;10.290;2022-11-20T06:13:41;93389.34;;;3.30;92.59
50093;BME280;35974;47.752;10.290;2022-11-20T06:16:09;93415.66;;;3.34;93.11
50093;BME280;35974;47.752;10.290;2022-11-20T06:18:37;93421.88;;;3.48;92.64
50093;BME280;35974;47.752;10.290;2022-11-20T06:21:11;93426.50;;;3.61;92.65
50093;BME280;35974;47.752;10.290;2022-11-20T06:23:38;93399.34;;;3.57;91.48
50093;BME280;35974;47.752;10.290;2022-11-20T06:29:18;93389.03;;;3.25;92.75
50093;BME280;35974;47.752;10.290;2022-11-20T06:31:45;93401.63;;;3.28;93.06
50093;BME280;35974;47.752;10.290;2022-11-20T06:34:11;93393.38;;;3.25;93.61
50093;BME280;35974;47.752;10.290;2022-11-20T06:36:38;93405.28;;;3.11;93.11
50093;BME280;35974;47.752;10.290;2022-11-20T06:39:04;93395.94;;;3.02;93.37
50093;BME280;35974;47.752;10.290;2022-11-20T06:41:31;93395.28;;;3.08;93.42
50093;BME280;35974;47.752;10.290;2022-11-20T06:44:06;93408.78;;;2.87;93.22
50093;BME280;35974;47.752;10.290;2022-11-20T06:46:38;93416.31;;;2.97;92.26
50093;BME280;35974;47.752;10.290;2022-11-20T06:49:04;93417.56;;;3.09;92.70
50093;BME280;35974;47.752;10.290;2022-11-20T06:51:32;93419.16;;;3.10;92.88
50093;BME280;35974;47.752;10.290;2022-11-20T06:53:59;93417.28;;;2.96;94.06
50093;BME280;35974;47.752;10.290;2022-11-20T06:56:27;93423.88;;;3.06;93.14
50093;BME280;35974;47.752;10.290;2022-11-20T06:58:54;93399.94;;;2.81;92.78
50093;BME280;35974;47.752;10.290;2022-11-20T07:01:20;93412.47;;;2.92;93.50
50093;BME280;35974;47.752;10.290;2022-11-20T07:03:49;93440.50;;;3.04;93.28
50093;BME280;35974;47.752;10.290;2022-11-20T07:06:20;93419.91;;;2.87;93.06
50093;BME280;35974;47.752;10.290;2022-11-20T07:08:46;93418.00;;;2.89;93.81
50093;BME280;35974;47.752;10.290;2022-11-20T07:11:13;93450.22;;;3.02;94.12
50093;BME280;35974;47.752;10.290;2022-11-20T07:13:40;93446.25;;;3.22;93.04
50093;BME280;35974;47.752;10.290;2022-11-20T07:16:07;93443.34;;;3.25;93.26
50093;BME280;35974;47.752;10.290;2022-11-20T07:18:35;93433.09;;;3.09;94.01
50093;BME280;35974;47.752;10.290;2022-11-20T07:21:03;93436.63;;;3.08;94.07
50093;BME280;35974;47.752;10.290;2022-11-20T07:23:30;93454.50;;;3.49;92.74
50093;BME280;35974;47.752;10.290;2022-11-20T07:26:03;93434.88;;;3.40;91.96
50093;BME280;35974;47.752;10.290;2022-11-20T07:28:30;93451.88;;;3.57;92.69
50093;BME280;35974;47.752;10.290;2022-11-20T07:30:57;93454.84;;;3.46;92.58
50093;BME280;35974;47.752;10.290;2022-11-20T07:33:26;93446.22;;;3.30;92.02
50093;BME280;35974;47.752;10.290;2022-11-20T07:35:53;93441.72;;;3.24;93.18
50093;BME280;35974;47.752;10.290;2022-11-20T07:38:19;93437.53;;;3.23;93.46
50093;BME280;35974;47.752;10.290;2022-11-20T07:40:53;93455.78;;;3.53;92.96
50093;BME280;35974;47.752;10.290;2022-11-20T07:43:20;93442.56;;;3.48;91.90
50093;BME280;35974;47.752;10.290;2022-11-20T07:45:48;93437.13;;;3.35;91.99
50093;BME280;35974;47.752;10.290;2022-11-20T07:48:15;93441.00;;;3.39;92.57
50093;BME280;35974;47.752;10.290;2022-11-20T07:50:48;93444.44;;;3.62;92.98
50093;BME280;35974;47.752;10.290;2022-11-20T07:53:23;93466.28;;;3.83;92.37
50093;BME280;35974;47.752;10.290;2022-11-20T07:55:49;93453.94;;;3.85;92.33
50093;BME280;35974;47.752;10.290;2022-11-20T07:58:20;93468.81;;;3.91;91.52
50093;BME280;35974;47.752;10.290;2022-11-20T08:01:07;93470.44;;;3.92;92.06
50093;BME280;35974;47.752;10.290;2022-11-20T08:03:34;93469.41;;;4.01;92.77
50093;BME280;35974;47.752;10.290;2022-11-20T08:06:05;93452.66;;;3.89;92.52
50093;BME280;35974;47.752;10.290;2022-11-20T08:08:36;93457.31;;;3.71;94.20
50093;BME280;35974;47.752;10.290;2022-11-20T08:11:09;93457.25;;;3.79;94.26
50093;BME280;35974;47.752;10.290;2022-11-20T08:13:55;93467.25;;;3.82;92.91
50093;BME280;35974;47.752;10.290;2022-11-20T08:16:41;93444.06;;;3.65;94.14
50093;BME280;35974;47.752;10.290;2022-11-20T08:19:14;93462.47;;;3.94;94.03
50093;BME280;35974;47.752;10.290;2022-11-20T08:21:41;93453.63;;;3.88;93.19
50093;BME280;35974;47.752;10.290;2022-11-20T08:24:08;93441.31;;;3.90;92.57
50093;BME280;35974;47.752;10.290;2022-11-20T08:26:36;93459.38;;;3.98;93.99
50093;BME280;35974;47.752;10.290;2022-11-20T08:29:04;93468.56;;;3.78;95.20
50093;BME280;35974;47.752;10.290;2022-11-20T08:31:31;93460.41;;;3.89;93.87
50093;BME280;35974;47.752;10.290;2022-11-20T08:34:13;93445.06;;;3.64;94.44
50093;BME280;35974;47.752;10.290;2022-11-20T08:36:44;93452.13;;;3.71;94.36
50093;BME280;35974;47.752;10.290;2022-11-20T08:39:12;93434.38;;;3.36;95.92
50093;BME280;35974;47.752;10.290;2022-11-20T08:41:39;93448.72;;;3.47;96.37
50093;BME280;35974;47.752;10.290;2022-11-20T08:44:07;93437.41;;;3.48;95.46
50093;BME280;35974;47.752;10.290;2022-11-20T08:49:07;93436.13;;;3.44;95.83
50093;BME280;35974;47.752;10.290;2022-11-20T08:51:34;93433.59;;;3.36;95.46
50093;BME280;35974;47.752;10.290;2022-11-20T08:54:01;93422.56;;;3.42;95.56
50093;BME280;35974;47.752;10.290;2022-11-20T08:56:30;93452.59;;;3.51;95.57
50093;BME280;35974;47.752;10.290;2022-11-20T08:58:57;93446.38;;;3.60;95.57
50093;BME280;35974;47.752;10.290;2022-11-20T09:01:53;93413.69;;;3.36;95.24
50093;BME280;35974;47.752;10.290;2022-11-20T09:04:19;93432.81;;;3.58;95.95
50093;BME280;35974;47.752;10.290;2022-11-20T09:06:46;93431.19;;;3.57;94.92
50093;BME280;35974;47.752;10.290;2022-11-20T09:09:17;93438.38;;;3.70;95.94
50093;BME280;35974;47.752;10.290;2022-11-20T09:11:51;93436.50;;;3.87;95.16
50093;BME280;35974;47.752;10.290;2022-11-20T09:14:21;93419.69;;;3.83;95.02
50093;BME280;35974;47.752;10.290;2022-11-20T09:16:50;93431.53;;;4.00;92.53
50093;BME280;35974;47.752;10.290;2022-11-20T09:19:17;93443.16;;;4.05;93.01
50093;BME280;35974;47.752;10.290;2022-11-20T09:22:03;93435.44;;;4.34;93.73
50093;BME280;35974;47.752;10.290;2022-11-20T09:24:30;93428.91;;;4.38;92.80
50093;BME280;35974;47.752;10.290;2022-11-20T09:27:01;93428.56;;;4.42;90.23
50093;BME280;35974;47.752;10.290;2022-11-20T09:29:28;93418.13;;;4.35;90.83
50093;BME280;35974;47.752;10.290;2022-11-20T09:31:54;93423.94;;;4.52;90.77
50093;BME280;35974;47.752;10.290;2022-11-20T09:34:20;93420.53;;;4.66;89.42
50093;BME280;35974;47.752;10.290;2022-11-20T09:36:47;93418.25;;;4.71;87.39
50093;BME280;35974;47.752;10.290;2022-11-20T09:39:33;93446.63;;;5.09;87.87
50093;BME280;35974;47.752;10.290;2022-11-20T09:42:08;93422.13;;;5.27;86.78
50093;BME280;35974;47.752;10.290;2022-11-20T09:44:51;93412.59;;;5.34;86.28
50093;BME280;35974;47.752;10.290;2022-11-20T09:53:26;93415.41;;;5.18;84.84
50093;BME280;35974;47.752;10.290;2022-11-20T09:55:56;93426.75;;;5.17;85.14
50093;BME280;35974;47.752;10.290;2022-11-20T09:58:41;93428.03;;;5.21;83.62
50093;BME280;35974;47.752;10.290;2022-11-20T10:01:15;93437.69;;;5.27;85.32
50093;BME280;35974;47.752;10.290;2022-11-20T10:03:58;93430.16;;;5.32;83.60
50093;BME280;35974;47.752;10.290;2022-11-20T10:07:19;93433.81;;;5.23;85.97
50093;BME280;35974;47.752;10.290;2022-11-20T10:09:40;93434.63;;;5.38;83.04
50093;BME280;35974;47.752;10.290;2022-11-20T10:29:36;93404.94;;;5.26;84.11
50093;BME280;35974;47.752;10.290;2022-11-20T10:32:15;93426.84;;;5.60;84.12
50093;BME280;35974;47.752;10.290;2022-11-20T10:35:44;93412.91;;;5.61;83.84
50093;BME280;35974;47.752;10.290;2022-11-20T10:37:49;93420.69;;;5.82;82.76
50093;BME280;35974;47.752;10.290;2022-11-20T10:40:34;93435.97;;;5.92;83.08
50093;BME280;35974;47.752;10.290;2022-11-20T10:43:13;93413.38;;;5.49;83.12
50093;BME280;35974;47.752;10.290;2022-11-20T10:45:49;93443.63;;;5.79;83.95
50093;BME280;35974;47.752;10.290;2022-11-20T10:48:31;93418.09;;;5.61;82.56
50093;BME280;35974;47.752;10.290;2022-11-20T10:56:52;93431.94;;;5.90;82.97
50093;BME280;35974;47.752;10.290;2022-11-20T11:02:24;93412.38;;;5.50;84.34
50093;BME280;35974;47.752;10.290;2022-11-20T11:04:57;93419.69;;;5.62;81.71
50093;BME280;35974;47.752;10.290;2022-11-20T11:07:30;93405.06;;;5.39;83.62
50093;BME280;35974;47.752;10.290;2022-11-20T11:10:01;93420.28;;;5.42;83.92
50093;BME280;35974;47.752;10.290;2022-11-20T11:12:28;93389.28;;;5.56;83.02
50093;BME280;35974;47.752;10.290;2022-11-20T11:14:57;93388.47;;;5.34;84.29
50093;BME280;35974;47.752;10.290;2022-11-20T11:17:26;93395.09;;;5.79;83.68
50093;BME280;35974;47.752;10.290;2022-11-20T11:20:20;93397.44;;;5.53;82.94
50093;BME280;35974;47.752;10.290;2022-11-20T11:22:47;93400.34;;;5.64;83.63
50093;BME280;35974;47.752;10.290;2022-11-20T11:25:23;93394.84;;;5.53;83.65
50093;BME280;35974;47.752;10.290;2022-11-20T11:27:51;93393.09;;;5.38;83.57
50093;BME280;35974;47.752;10.290;2022-11-20T11:30:19;93396.31;;;5.40;84.16
50093;BME280;35974;47.752;10.290;2022-11-20T11:32:46;93378.50;;;5.16;84.56
50093;BME280;35974;47.752;10.290;2022-11-20T11:35:27;93402.81;;;5.14;83.62
50093;BME280;35974;47.752;10.290;2022-11-20T11:38:17;93397.53;;;5.08;84.77
50093;BME280;35974;47.752;10.290;2022-11-20T11:40:46;93381.75;;;4.88;86.21
50093;BME280;35974;47.752;10.290;2022-11-20T11:43:25;93395.22;;;5.13;84.52
50093;BME280;35974;47.752;10.290;2022-11-20T11:46:27;93375.84;;;4.94;84.94
50093;BME280;35974;47.752;10.290;2022-11-20T11:49:11;93388.19;;;4.92;85.78
50093;BME280;35974;47.752;10.290;2022-11-20T11:52:12;93394.91;;;5.23;84.87
50093;BME280;35974;47.752;10.290;2022-11-20T11:55:00;93396.66;;;5.16;83.64
50093;BME280;35974;47.752;10.290;2022-11-20T12:00:14;93388.78;;;5.45;82.89
50093;BME280;35974;47.752;10.290;2022-11-20T12:05:37;93372.59;;;6.08;81.13
50093;BME280;35974;47.752;10.290;2022-11-20T12:08:12;93348.31;;;6.22;80.82
50093;BME280;35974;47.752;10.290;2022-11-20T12:10:47;93347.50;;;6.50;80.61
50093;BME280;35974;47.752;10.290;2022-11-20T12:15:56;93345.59;;;7.27;79.96
50093;BME280;35974;47.752;10.290;2022-11-20T12:18:23;93344.63;;;6.80;77.60
50093;BME280;35974;47.752;10.290;2022-11-20T12:38:29;93354.19;;;6.38;77.07
50093;BME280;35974;47.752;10.290;2022-11-20T13:00:20;93354.56;;;4.84;83.53
50093;BME280;35974;47.752;10.290;2022-11-20T13:08:33;93344.00;;;5.00;86.17
50093;BME280;35974;47.752;10.290;2022-11-20T13:11:17;93337.94;;;4.93;85.89
50093;BME280;35974;47.752;10.290;2022-11-20T13:14:29;93360.44;;;5.07;86.29
50093;BME280;35974;47.752;10.290;2022-11-20T13:17:05;93326.72;;;4.86;86.65
50093;BME280;35974;47.752;10.290;2022-11-20T13:19:38;93330.22;;;5.00;85.29
50093;BME280;35974;47.752;10.290;2022-11-20T13:22:07;93335.88;;;4.88;86.08
50093;BME280;35974;47.752;10.290;2022-11-20T13:24:34;93298.44;;;4.91;86.95
50093;BME280;35974;47.752;10.290;2022-11-20T13:29:43;93318.47;;;5.40;83.83
50093;BME280;35974;47.752;10.290;2022-11-20T13:32:21;93315.00;;;5.11;82.29
50093;BME280;35974;47.752;10.290;2022-11-20T13:34:58;93333.78;;;5.13;85.41
50093;BME280;35974;47.752;10.290;2022-11-20T13:37:32;93315.34;;;5.08;83.25
50093;BME280;35974;47.752;10.290;2022-11-20T13:46:04;93299.16;;;4.85;85.21
50093;BME280;35974;47.752;10.290;2022-11-20T13:48:44;93330.06;;;5.01;84.60
50093;BME280;35974;47.752;10.290;2022-11-20T13:51:44;93326.59;;;4.94;84.86
50093;BME280;35974;47.752;10.290;2022-11-20T14:00:20;93332.41;;;4.96;88.53
50093;BME280;35974;47.752;10.290;2022-11-20T14:03:09;93322.53;;;5.06;89.39
50093;BME280;35974;47.752;10.290;2022-11-20T14:05:40;93291.38;;;4.85;91.08
50093;BME280;35974;47.752;10.290;2022-11-20T14:08:25;93290.66;;;4.39;91.26
50093;BME280;35974;47.752;10.290;2022-11-20T14:11:14;93299.94;;;4.49;92.17
50093;BME280;35974;47.752;10.290;2022-11-20T14:14:03;93303.31;;;4.64;90.89
50093;BME280;35974;47.752;10.290;2022-11-20T14:16:37;93297.75;;;4.67;91.68
50093;BME280;35974;47.752;10.290;2022-11-20T14:19:28;93308.13;;;4.67;90.66
50093;BME280;35974;47.752;10.290;2022-11-20T14:22:17;93310.09;;;4.65;91.18
50093;BME280;35974;47.752;10.290;2022-11-20T14:24:45;93299.75;;;4.65;90.00
50093;BME280;35974;47.752;10.290;2022-11-20T14:27:20;93281.56;;;4.44;89.86
50093;BME280;35974;47.752;10.290;2022-11-20T14:29:49;93280.09;;;4.56;90.18
50093;BME280;35974;47.752;10.290;2022-11-20T14:32:28;93296.09;;;4.96;91.27
50093;BME280;35974;47.752;10.290;2022-11-20T14:35:16;93277.34;;;4.94;87.58
50093;BME280;35974;47.752;10.290;2022-11-20T14:37:51;93294.59;;;5.08;88.76
50093;BME280;35974;47.752;10.290;2022-11-20T14:40:28;93297.59;;;5.27;86.33
50093;BME280;35974;47.752;10.290;2022-11-20T14:42:57;93286.50;;;5.33;83.81
50093;BME280;35974;47.752;10.290;2022-11-20T14:45:34;93299.13;;;5.21;83.88
50093;BME280;35974;47.752;10.290;2022-11-20T14:48:03;93290.53;;;4.99;85.71
50093;BME280;35974;47.752;10.290;2022-11-20T14:50:47;93296.47;;;4.93;87.45
50093;BME280;35974;47.752;10.290;2022-11-20T14:53:24;93284.94;;;4.95;87.81
50093;BME280;35974;47.752;10.290;2022-11-20T14:56:00;93291.63;;;4.90;87.40
50093;BME280;35974;47.752;10.290;2022-11-20T14:58:31;93302.72;;;5.20;85.60
50093;BME280;35974;47.752;10.290;2022-11-20T15:01:07;93308.59;;;5.07;85.21
50093;BME280;35974;47.752;10.290;2022-11-20T15:03:38;93302.72;;;4.84;87.72
50093;BME280;35974;47.752;10.290;2022-11-20T15:06:12;93292.09;;;4.79;87.86
50093;BME280;35974;47.752;10.290;2022-11-20T15:08:52;93280.59;;;4.66;87.33